createdAt,value
2023-03-26T00:02:45.368Z,101899.22
2023-03-26T00:07:48.954Z,101883.25
2023-03-26T00:12:51.698Z,101881.53
2023-03-26T00:17:54.487Z,101883.31
2023-03-26T00:22:56.833Z,101870.91
2023-03-26T00:27:59.099Z,101868.28
2023-03-26T00:33:02.082Z,101878.03
2023-03-26T00:38:04.310Z,101871.00
2023-03-26T00:43:19.469Z,101866.56
2023-03-26T00:48:31.377Z,101869.22
2023-03-26T00:53:41.466Z,101871.00
2023-03-26T00:58:43.994Z,101883.31
2023-03-26T01:04:04.656Z,101870.16
2023-03-26T01:09:19.239Z,101863.13
2023-03-26T01:14:25.293Z,101860.41
2023-03-26T01:19:30.309Z,101846.19
2023-03-26T01:24:32.661Z,101848.00
2023-03-26T01:29:57.841Z,101834.81
2023-03-26T01:35:13.250Z,101821.63
2023-03-26T01:40:20.534Z,101810.28
2023-03-26T01:45:28.399Z,101808.38
2023-03-26T01:50:30.482Z,101792.47
2023-03-26T01:55:49.915Z,101787.16
2023-03-26T02:01:02.365Z,101778.34
2023-03-26T02:06:16.674Z,101784.50
2023-03-26T02:11:19.981Z,101784.50
2023-03-26T02:16:22.336Z,101771.25
2023-03-26T02:21:26.405Z,101760.66
2023-03-26T02:26:30.431Z,101751.09
2023-03-26T02:31:43.570Z,101743.88
2023-03-26T02:36:45.904Z,101739.44
2023-03-26T02:41:48.243Z,101742.09
2023-03-26T02:46:50.704Z,101746.53
2023-03-26T02:52:18.878Z,101726.28
2023-03-26T02:57:24.863Z,101729.69
2023-03-26T03:02:50.715Z,101704.97
2023-03-26T03:08:08.307Z,101696.16
2023-03-26T03:13:13.168Z,101688.31
2023-03-26T03:18:15.534Z,101675.06
2023-03-26T03:23:17.917Z,101682.91
2023-03-26T03:28:20.395Z,101670.63
2023-03-26T03:33:22.770Z,101673.25
2023-03-26T03:38:25.245Z,101664.47
2023-03-26T03:43:29.296Z,101640.97
2023-03-26T03:48:39.990Z,101652.13
2023-03-26T03:53:46.461Z,101645.13
2023-03-26T03:58:51.769Z,101638.03
2023-03-26T04:04:02.457Z,101636.22
2023-03-26T04:09:24.897Z,101647.69
2023-03-26T04:14:29.754Z,101644.28
2023-03-26T04:19:37.761Z,101646.94
2023-03-26T04:24:42.744Z,101654.03
2023-03-26T04:29:49.992Z,101657.75
2023-03-26T04:35:03.621Z,101644.38
2023-03-26T04:40:34.920Z,101654.13
2023-03-26T04:45:55.843Z,101653.28
2023-03-26T04:51:01.881Z,101651.59
2023-03-26T04:56:14.377Z,101656.88
2023-03-26T05:01:37.993Z,101659.41
2023-03-26T05:06:42.046Z,101661.34
2023-03-26T05:11:54.529Z,101659.63
2023-03-26T05:16:57.336Z,101658.69
2023-03-26T05:21:59.761Z,101668.34
2023-03-26T05:27:02.216Z,101656.97
2023-03-26T05:32:17.289Z,101663.97
2023-03-26T05:37:24.765Z,101649.88
2023-03-26T05:42:42.062Z,101650.81
2023-03-26T05:48:01.821Z,101652.53
2023-03-26T05:53:04.560Z,101659.63
2023-03-26T05:58:26.766Z,101649.97
2023-03-26T06:03:47.459Z,101645.59
2023-03-26T06:09:01.475Z,101626.19
2023-03-26T06:14:06.245Z,101630.53
2023-03-26T06:19:09.870Z,101638.41
2023-03-26T06:24:24.767Z,101639.44
2023-03-26T06:30:02.131Z,101644.75
2023-03-26T06:35:19.357Z,101658.13
2023-03-26T06:40:21.848Z,101654.63
2023-03-26T06:45:38.528Z,101657.16
2023-03-26T06:51:10.475Z,101658.84
2023-03-26T06:56:50.900Z,101651.00
2023-03-26T07:02:15.964Z,101658.94
2023-03-26T07:07:46.380Z,101672.09
2023-03-26T07:13:07.812Z,101664.16
2023-03-26T07:18:19.082Z,101668.72
2023-03-26T07:23:22.629Z,101657.91
2023-03-26T07:29:03.771Z,101650.03
2023-03-26T07:34:41.377Z,101650.91
2023-03-26T07:40:45.589Z,101643.03
2023-03-26T07:46:11.394Z,101638.59
2023-03-26T07:51:36.559Z,101638.59
2023-03-26T07:57:05.424Z,101636.78
2023-03-26T08:02:41.519Z,101628.75
2023-03-26T08:08:32.511Z,101625.25
2023-03-26T08:14:18.669Z,101602.44
2023-03-26T08:19:35.591Z,101599.78
2023-03-26T08:24:59.610Z,101597.03
2023-03-26T08:30:19.036Z,101598.72
2023-03-26T08:35:21.230Z,101593.44
2023-03-26T08:40:53.010Z,101612.94
2023-03-26T08:46:32.042Z,101621.66
2023-03-26T08:51:44.892Z,101626.00
2023-03-26T08:56:57.786Z,101624.31
2023-03-26T09:02:24.789Z,101619.84
2023-03-26T09:07:36.706Z,101633.97
2023-03-26T09:12:59.966Z,101619.75
2023-03-26T09:18:14.178Z,101605.66
2023-03-26T09:23:34.581Z,101615.41
2023-03-26T09:28:54.915Z,101602.16
2023-03-26T09:34:04.579Z,101602.06
2023-03-26T09:39:17.739Z,101620.63
2023-03-26T09:44:48.279Z,101605.66
2023-03-26T09:50:12.067Z,101599.28
2023-03-26T09:55:32.346Z,101601.94
2023-03-26T10:01:06.088Z,101622.22
2023-03-26T10:06:40.997Z,101623.06
2023-03-26T10:12:09.252Z,101626.66
2023-03-26T10:17:15.781Z,101631.78
2023-03-26T10:22:55.430Z,101638.78
2023-03-26T10:28:14.193Z,101648.44
2023-03-26T10:33:57.444Z,101636.13
2023-03-26T10:39:09.478Z,101627.13
2023-03-26T10:44:28.445Z,101613.88
2023-03-26T10:49:52.377Z,101615.66
2023-03-26T10:55:16.696Z,101617.38
2023-03-26T11:00:25.681Z,101623.53
2023-03-26T11:06:02.428Z,101620.03
2023-03-26T11:11:23.338Z,101618.22
2023-03-26T11:16:31.605Z,101611.13
2023-03-26T11:22:03.821Z,101608.38
2023-03-26T11:27:43.453Z,101604.78
2023-03-26T11:32:49.373Z,101608.16
2023-03-26T11:37:57.460Z,101601.06
2023-03-26T11:43:06.709Z,101604.56
2023-03-26T11:48:15.013Z,101608.94
2023-03-26T11:53:21.530Z,101604.50
2023-03-26T11:58:34.072Z,101620.31
2023-03-26T12:03:38.373Z,101617.66
2023-03-26T12:08:41.802Z,101628.25
2023-03-26T12:13:58.496Z,101617.53
2023-03-26T12:19:06.268Z,101622.84
2023-03-26T12:24:26.696Z,101616.69
2023-03-26T12:29:35.057Z,101611.28
2023-03-26T12:34:39.599Z,101621.91
2023-03-26T12:40:10.706Z,101602.38
2023-03-26T12:45:07.019Z,101605.03
2023-03-26T12:50:14.788Z,101604.00
2023-03-26T12:55:52.442Z,101601.34
2023-03-26T13:01:03.407Z,101594.22
2023-03-26T13:06:15.865Z,101587.22
2023-03-26T13:11:17.967Z,101589.75
2023-03-26T13:16:41.754Z,101593.41
2023-03-26T13:22:11.362Z,101585.53
2023-03-26T13:27:27.294Z,101589.13
2023-03-26T13:32:48.870Z,101585.44
2023-03-26T13:38:10.190Z,101587.09
2023-03-26T13:43:36.438Z,101578.22
2023-03-26T13:48:42.344Z,101583.34
2023-03-26T13:53:57.596Z,101571.97
2023-03-26T13:59:09.243Z,101570.16
2023-03-26T14:04:25.818Z,101584.28
2023-03-26T14:09:44.950Z,101583.41
2023-03-26T14:15:04.349Z,101579.91
2023-03-26T14:20:21.119Z,101568.38
2023-03-26T14:25:26.477Z,101573.56
2023-03-26T14:30:46.573Z,101577.25
2023-03-26T14:36:16.993Z,101575.38
2023-03-26T14:41:27.988Z,101578.03
2023-03-26T14:46:51.312Z,101578.03
2023-03-26T14:52:10.476Z,101580.69
2023-03-26T14:57:52.483Z,101571.00
2023-03-26T15:03:10.008Z,101564.66
2023-03-26T15:08:34.168Z,101571.66
2023-03-26T15:13:59.837Z,101562.66
2023-03-26T15:19:32.616Z,101564.47
2023-03-26T15:24:53.189Z,101562.56
2023-03-26T15:30:29.785Z,101562.66
2023-03-26T15:35:31.966Z,101563.50
2023-03-26T15:40:54.498Z,101575.06
2023-03-26T15:46:23.106Z,101566.25
2023-03-26T15:51:32.452Z,101567.97
2023-03-26T15:56:54.934Z,101552.91
2023-03-26T16:02:22.871Z,101555.66
2023-03-26T16:07:34.616Z,101551.94
2023-03-26T16:12:46.934Z,101551.19
2023-03-26T16:18:42.526Z,101554.59
2023-03-26T16:23:47.611Z,101537.94
2023-03-26T16:28:53.121Z,101548.44
2023-03-26T16:34:10.939Z,101552.03
2023-03-26T16:39:21.766Z,101565.88
2023-03-26T16:44:42.732Z,101580.19
2023-03-26T16:50:19.013Z,101576.69
2023-03-26T16:55:43.540Z,101567.75
2023-03-26T17:00:55.825Z,101579.16
2023-03-26T17:06:14.390Z,101590.72
2023-03-26T17:11:22.373Z,101594.22
2023-03-26T17:16:32.652Z,101590.72
2023-03-26T17:22:02.534Z,101590.63
2023-03-26T17:27:17.666Z,101597.72
2023-03-26T17:32:21.721Z,101601.13
2023-03-26T17:37:23.859Z,101610.69
2023-03-26T17:42:34.063Z,101604.75
2023-03-26T17:47:58.938Z,101614.41
2023-03-26T17:53:05.267Z,101625.88
2023-03-26T17:58:23.782Z,101625.97
2023-03-26T18:03:58.011Z,101638.38
2023-03-26T18:09:15.949Z,101646.16
2023-03-26T18:14:24.272Z,101653.25
2023-03-26T18:19:27.810Z,101659.41
2023-03-26T18:24:42.341Z,101660.44
2023-03-26T18:30:18.255Z,101663.09
2023-03-26T18:35:22.569Z,101670.22
2023-03-26T18:40:33.027Z,101688.69
2023-03-26T18:45:39.179Z,101676.38
2023-03-26T18:50:42.229Z,101680.81
2023-03-26T18:55:44.998Z,101693.22
2023-03-26T19:00:48.310Z,101698.44
2023-03-26T19:05:53.492Z,101700.34
2023-03-26T19:10:55.916Z,101702.03
2023-03-26T19:15:59.120Z,101705.56
2023-03-26T19:21:03.636Z,101703.00
2023-03-26T19:26:09.866Z,101706.50
2023-03-26T19:31:31.837Z,101710.94
2023-03-26T19:36:34.809Z,101705.81
2023-03-26T19:41:41.899Z,101709.16
2023-03-26T19:46:53.336Z,101714.63
2023-03-26T19:52:21.408Z,101717.16
2023-03-26T19:57:23.858Z,101723.34
2023-03-26T20:02:27.158Z,101718.97
2023-03-26T20:07:35.047Z,101720.78
2023-03-26T20:12:38.468Z,101719.09
2023-03-26T20:17:43.015Z,101711.00
2023-03-26T20:22:47.250Z,101734.06
2023-03-26T20:27:49.415Z,101711.97
2023-03-26T20:33:12.520Z,101716.31
2023-03-26T20:38:14.111Z,101702.31
2023-03-26T20:43:18.659Z,101723.53
2023-03-26T20:48:21.076Z,101717.28
2023-03-26T20:53:23.972Z,101720.78
2023-03-26T20:58:31.758Z,101721.75
2023-03-26T21:03:34.455Z,101711.22
2023-03-26T21:08:38.062Z,101721.81
2023-03-26T21:13:47.683Z,101722.69
2023-03-26T21:18:50.081Z,101728.84
2023-03-26T21:24:09.554Z,101714.72
2023-03-26T21:29:12.268Z,101696.16
2023-03-26T21:34:14.733Z,101713.88
2023-03-26T21:39:17.073Z,101719.16
2023-03-26T21:44:20.316Z,101716.53
2023-03-26T21:49:22.934Z,101706.75
2023-03-26T21:54:30.366Z,101713.00
2023-03-26T21:59:42.710Z,101711.31
2023-03-26T22:04:47.493Z,101700.69
2023-03-26T22:09:50.403Z,101699.97
2023-03-26T22:14:52.805Z,101698.97
2023-03-26T22:19:56.332Z,101695.47
2023-03-26T22:24:58.492Z,101687.63
2023-03-26T22:30:00.612Z,101685.84
2023-03-26T22:35:04.225Z,101683.28
2023-03-26T22:40:13.077Z,101692.09
2023-03-26T22:45:15.232Z,101663.63
2023-03-26T22:50:17.414Z,101682.22
2023-03-26T22:55:28.346Z,101684.97
2023-03-26T23:00:32.578Z,101688.50
2023-03-26T23:05:35.023Z,101678.81
2023-03-26T23:10:37.180Z,101674.47
2023-03-26T23:15:40.623Z,101673.44
2023-03-26T23:20:53.079Z,101664.63
2023-03-26T23:26:00.501Z,101667.38
2023-03-26T23:31:07.285Z,101684.97
2023-03-26T23:36:10.212Z,101692.09
2023-03-26T23:41:16.231Z,101683.28
2023-03-26T23:46:18.315Z,101685.06
2023-03-26T23:51:21.235Z,101680.72
2023-03-26T23:56:23.936Z,101693.03
